Terminal Aerodrome Forecast
Issued by NWS

Home | Current Version | Previous Version | Text Only | Print | Product List | Glossary On
Versions: 1 2 3 4 5 6 7 8 9 10 11 12 13 14 15 16
154
FTUS44 KTSA 180531
TAFBVO
TAF
KBVO 180531Z 1806/1906 VRB02KT 6SM BR SCT007 OVC012
     FM181000 VRB02KT 4SM BR SCT005 BKN025
      TEMPO 1811/1815 1SM BR OVC005
     FM181500 21004KT P6SM SCT025
     FM181700 20007KT P6SM SKC=

USA.gov is the U.S. government's official web portal to all federal, state and local government web resources and services.